Time;durP1;ratioP1;P1;durP2;ratioP2;P2;SDS_P1;SDS_P2;PMS_P1;PMS_P2;Temp;Humidity;BMP_temperature;BMP_pressure;BME280_temperature;BME280_humidity;BME280_pressure;Samples;Min_cycle;Max_cycle;Signal;HPM_P1;HPM_P2
2024/02/06 00:01:27;;;;;;;13.20;3.78;;;9.80;99.90;;;;;;5079555;28;20036;-65
2024/02/06 00:03:54;;;;;;;13.48;3.25;;;9.80;99.90;;;;;;5081187;28;20047;-64
2024/02/06 00:06:20;;;;;;;10.25;2.83;;;9.80;99.90;;;;;;5099578;28;20493;-65
2024/02/06 00:08:46;;;;;;;9.90;2.80;;;9.90;99.90;;;;;;5097336;28;20039;-64
2024/02/06 00:11:12;;;;;;;8.90;3.45;;;9.80;99.90;;;;;;5097589;28;20036;-65
2024/02/06 00:13:38;;;;;;;10.23;2.80;;;9.90;99.90;;;;;;5096119;28;20093;-65
2024/02/06 00:16:12;;;;;;;13.55;2.90;;;9.90;99.90;;;;;;5097151;28;20036;-65
2024/02/06 00:18:37;;;;;;;6.28;1.80;;;9.90;99.90;;;;;;5096571;28;20051;-64
2024/02/06 00:21:03;;;;;;;13.02;2.53;;;9.80;99.90;;;;;;5080223;28;20036;-65
2024/02/06 00:23:29;;;;;;;11.50;2.53;;;9.80;99.90;;;;;;5093933;28;20456;-65
2024/02/06 00:25:55;;;;;;;13.68;4.10;;;9.80;99.90;;;;;;5099020;28;20036;-65
2024/02/06 00:28:22;;;;;;;18.38;3.25;;;9.80;99.90;;;;;;5075259;28;20065;-65
2024/02/06 00:30:47;;;;;;;15.45;2.80;;;9.80;99.90;;;;;;5096808;28;20043;-65
2024/02/06 00:33:14;;;;;;;7.10;2.35;;;9.80;99.90;;;;;;5076613;28;20048;-65
2024/02/06 00:35:39;;;;;;;13.43;3.40;;;9.80;99.90;;;;;;5098278;28;20069;-65
2024/02/06 00:38:05;;;;;;;14.25;2.92;;;9.90;99.90;;;;;;5100242;28;20038;-64
2024/02/06 00:40:30;;;;;;;9.15;2.90;;;9.80;99.90;;;;;;5080504;28;20046;-65
2024/02/06 00:42:56;;;;;;;16.48;3.22;;;9.80;99.90;;;;;;5095450;28;20024;-64
2024/02/06 00:45:22;;;;;;;9.52;3.28;;;9.90;99.90;;;;;;5097701;28;20446;-65
2024/02/06 00:47:49;;;;;;;15.35;3.17;;;9.90;99.90;;;;;;5080878;28;20043;-65
2024/02/06 00:50:16;;;;;;;16.27;2.85;;;9.90;99.90;;;;;;5078525;28;20099;-65
2024/02/06 00:52:41;;;;;;;10.70;2.47;;;9.90;99.90;;;;;;5075856;28;20079;-64
2024/02/06 00:55:08;;;;;;;10.80;3.05;;;9.90;99.90;;;;;;5095671;28;20071;-64
2024/02/06 00:57:33;;;;;;;13.43;3.80;;;9.90;99.90;;;;;;5075255;28;20053;-65
2024/02/06 00:59:59;;;;;;;11.05;2.58;;;9.80;99.90;;;;;;5095417;28;20032;-65
2024/02/06 01:02:25;;;;;;;9.80;2.63;;;9.90;99.90;;;;;;5073836;28;20133;-65
2024/02/06 01:04:51;;;;;;;12.68;3.42;;;9.90;99.90;;;;;;5094396;28;20092;-64
2024/02/06 01:07:18;;;;;;;14.70;3.30;;;9.90;99.90;;;;;;5108339;27;20053;-65
2024/02/06 01:09:45;;;;;;;11.15;3.22;;;9.80;99.90;;;;;;5097117;28;20048;-65
2024/02/06 01:12:10;;;;;;;13.27;2.92;;;9.90;99.90;;;;;;5079236;28;20040;-65
2024/02/06 01:14:36;;;;;;;14.90;3.42;;;9.90;99.90;;;;;;5094086;28;20027;-64
2024/02/06 01:17:03;;;;;;;9.80;2.15;;;9.90;99.90;;;;;;5079171;28;20073;-65
2024/02/06 01:19:29;;;;;;;15.30;2.78;;;9.90;99.90;;;;;;5092957;28;20040;-65
2024/02/06 01:21:55;;;;;;;13.27;2.38;;;9.90;99.90;;;;;;5095558;28;20123;-65
2024/02/06 01:24:20;;;;;;;12.98;2.47;;;10.00;99.90;;;;;;5075914;28;20071;-65
2024/02/06 01:26:46;;;;;;;10.02;2.92;;;9.90;99.90;;;;;;5098697;28;20028;-65
2024/02/06 01:29:12;;;;;;;11.57;3.65;;;10.00;99.90;;;;;;5110935;27;20043;-65
2024/02/06 01:31:38;;;;;;;14.40;3.33;;;10.00;99.90;;;;;;5095360;28;20101;-65
2024/02/06 01:34:03;;;;;;;13.80;4.10;;;10.00;99.90;;;;;;5096516;28;20036;-65
2024/02/06 01:36:29;;;;;;;13.25;2.40;;;9.90;99.90;;;;;;5096835;28;20076;-65
2024/02/06 01:38:54;;;;;;;13.43;2.65;;;9.90;99.90;;;;;;5097259;28;20040;-65
2024/02/06 01:41:21;;;;;;;19.27;2.70;;;9.90;99.90;;;;;;5078664;28;20378;-65
2024/02/06 01:43:46;;;;;;;9.98;2.70;;;9.90;99.90;;;;;;5096605;28;20051;-65
2024/02/06 01:46:12;;;;;;;13.80;3.55;;;9.90;99.90;;;;;;5094369;28;20397;-65
2024/02/06 01:48:38;;;;;;;11.80;3.33;;;9.90;99.90;;;;;;5099567;28;20478;-65
2024/02/06 01:51:06;;;;;;;10.60;3.15;;;9.90;99.90;;;;;;5096985;28;20046;-65
2024/02/06 01:53:31;;;;;;;16.10;2.97;;;9.90;99.90;;;;;;5062259;28;20083;-65
2024/02/06 01:55:58;;;;;;;19.85;3.65;;;9.80;99.90;;;;;;5095912;28;20137;-65
2024/02/06 01:58:24;;;;;;;15.02;3.63;;;9.90;99.90;;;;;;5097739;28;20077;-65
2024/02/06 02:00:50;;;;;;;10.90;2.95;;;9.90;99.90;;;;;;5076601;28;20118;-65
2024/02/06 02:03:17;;;;;;;17.38;3.28;;;9.90;99.90;;;;;;5106871;27;20058;-65
2024/02/06 02:05:45;;;;;;;16.17;3.70;;;10.00;99.90;;;;;;5080558;28;20055;-65
2024/02/06 02:08:11;;;;;;;12.82;3.25;;;9.90;99.90;;;;;;5080752;28;20047;-65
2024/02/06 02:10:37;;;;;;;13.52;2.95;;;10.00;99.90;;;;;;5096444;28;20044;-65
2024/02/06 02:13:04;;;;;;;17.08;3.97;;;9.90;99.90;;;;;;5078037;28;20040;-65
2024/02/06 02:15:29;;;;;;;15.02;3.80;;;9.90;99.90;;;;;;5092552;28;20036;-65
2024/02/06 02:17:55;;;;;;;9.73;3.75;;;9.90;99.90;;;;;;5088959;28;20051;-65
2024/02/06 02:20:20;;;;;;;12.48;4.03;;;9.90;99.90;;;;;;5090278;28;20567;-65
2024/02/06 02:22:46;;;;;;;15.82;3.60;;;9.90;99.90;;;;;;5076893;28;20390;-65
2024/02/06 02:25:12;;;;;;;20.02;3.63;;;9.90;99.90;;;;;;5095379;28;20123;-65
2024/02/06 02:27:38;;;;;;;15.98;3.67;;;9.90;99.90;;;;;;5110946;27;20036;-65
2024/02/06 02:30:05;;;;;;;20.65;3.55;;;9.90;99.90;;;;;;5080034;28;20046;-65
2024/02/06 02:32:31;;;;;;;17.73;4.13;;;9.90;99.90;;;;;;5095778;28;20365;-65
2024/02/06 02:34:57;;;;;;;17.10;3.05;;;10.00;99.90;;;;;;5109305;27;20398;-65
2024/02/06 02:37:23;;;;;;;15.48;4.00;;;9.90;99.90;;;;;;5097940;28;20039;-65
2024/02/06 02:39:49;;;;;;;14.45;2.90;;;9.90;99.90;;;;;;5095772;28;20036;-65
2024/02/06 02:42:14;;;;;;;14.90;3.20;;;9.90;99.90;;;;;;5093748;28;20040;-65
2024/02/06 02:44:40;;;;;;;14.98;3.38;;;9.90;99.90;;;;;;5095271;28;20557;-65
2024/02/06 02:47:06;;;;;;;21.83;4.55;;;9.90;99.90;;;;;;5074123;28;20040;-65
2024/02/06 02:49:31;;;;;;;17.65;4.60;;;9.90;99.90;;;;;;5077253;28;20078;-65
2024/02/06 02:51:57;;;;;;;17.00;3.33;;;9.90;99.90;;;;;;5059279;28;20040;-64
2024/02/06 02:54:27;;;;;;;16.95;4.20;;;9.90;99.90;;;;;;5081288;28;20040;-64
2024/02/06 02:56:54;;;;;;;19.70;4.28;;;10.00;99.90;;;;;;5100257;28;20032;-65
2024/02/06 02:59:20;;;;;;;12.48;2.92;;;9.90;99.90;;;;;;5094173;28;20036;-65
2024/02/06 03:01:45;;;;;;;15.40;4.88;;;10.00;99.90;;;;;;5106128;28;20042;-65
2024/02/06 03:04:11;;;;;;;14.85;3.42;;;10.00;99.90;;;;;;5097375;28;20036;-65
2024/02/06 03:06:37;;;;;;;16.52;3.50;;;10.00;99.90;;;;;;5093811;28;20081;-65
2024/02/06 03:09:03;;;;;;;20.75;3.58;;;10.00;99.90;;;;;;5097208;28;20047;-65
2024/02/06 03:11:29;;;;;;;14.93;3.00;;;10.00;99.90;;;;;;5098193;28;20023;-65
2024/02/06 03:13:55;;;;;;;17.80;4.30;;;10.00;99.90;;;;;;5079133;28;20044;-65
2024/02/06 03:16:21;;;;;;;19.90;4.93;;;10.00;99.90;;;;;;5074536;28;20038;-65
2024/02/06 03:18:46;;;;;;;14.35;2.95;;;10.00;99.90;;;;;;5077753;28;20031;-65
2024/02/06 03:21:12;;;;;;;15.63;3.17;;;10.00;99.90;;;;;;5097890;28;20367;-65
2024/02/06 03:23:38;;;;;;;17.80;4.07;;;9.90;99.90;;;;;;5113325;28;20044;-65
2024/02/06 03:26:04;;;;;;;18.40;2.95;;;10.00;99.90;;;;;;5093660;28;20032;-65
2024/02/06 03:28:30;;;;;;;22.85;3.95;;;10.00;99.90;;;;;;5076988;28;20036;-65
2024/02/06 03:30:57;;;;;;;15.25;3.45;;;10.00;99.90;;;;;;5094246;28;20054;-65
2024/02/06 03:33:23;;;;;;;17.55;3.58;;;9.90;99.90;;;;;;5096012;28;20103;-65
2024/02/06 03:35:49;;;;;;;22.65;4.55;;;10.00;99.90;;;;;;5092420;28;20453;-65
2024/02/06 03:38:17;;;;;;;16.45;3.75;;;10.00;99.90;;;;;;5093076;28;20107;-65
2024/02/06 03:40:43;;;;;;;15.98;3.70;;;9.90;99.90;;;;;;5073281;28;20040;-65
2024/02/06 03:43:09;;;;;;;19.52;3.55;;;10.00;99.90;;;;;;5093972;28;20075;-65
2024/02/06 03:45:34;;;;;;;16.05;3.83;;;10.00;99.90;;;;;;5094964;28;20123;-65
2024/02/06 03:48:00;;;;;;;17.23;4.30;;;10.00;99.90;;;;;;5094618;28;20039;-65
2024/02/06 03:50:26;;;;;;;16.60;4.10;;;10.00;99.90;;;;;;5091462;28;20041;-65
2024/02/06 03:52:51;;;;;;;17.90;3.70;;;10.00;99.90;;;;;;5075424;28;20104;-65
2024/02/06 03:55:17;;;;;;;18.52;3.83;;;10.00;99.90;;;;;;5098759;28;20036;-65
2024/02/06 03:57:43;;;;;;;12.70;3.70;;;10.00;99.90;;;;;;5081535;28;20039;-65
2024/02/06 04:00:09;;;;;;;18.45;4.55;;;9.90;99.90;;;;;;5100451;28;20550;-65
2024/02/06 04:02:35;;;;;;;15.95;3.70;;;10.00;99.90;;;;;;5097900;28;20119;-65
2024/02/06 04:05:01;;;;;;;15.13;3.60;;;10.00;99.90;;;;;;5094755;28;20535;-65
2024/02/06 04:07:27;;;;;;;17.02;2.95;;;10.00;99.90;;;;;;5079595;28;20089;-65
2024/02/06 04:09:53;;;;;;;18.10;4.50;;;10.20;99.90;;;;;;5099432;28;20035;-65
2024/02/06 04:12:18;;;;;;;14.48;3.50;;;10.10;99.90;;;;;;5062053;28;20048;-65
2024/02/06 04:14:44;;;;;;;15.38;2.83;;;10.00;99.90;;;;;;5097909;28;20070;-65
2024/02/06 04:17:09;;;;;;;22.33;4.45;;;10.10;99.90;;;;;;5098822;28;20229;-65
2024/02/06 04:19:35;;;;;;;16.98;3.70;;;10.10;99.90;;;;;;5099573;28;20035;-65
2024/02/06 04:22:01;;;;;;;15.10;3.95;;;10.00;99.90;;;;;;5077789;28;20378;-65
2024/02/06 04:24:26;;;;;;;15.57;3.58;;;10.10;99.90;;;;;;5109450;27;20075;-65
2024/02/06 04:26:52;;;;;;;17.33;3.95;;;10.10;99.90;;;;;;5084387;28;20043;-65
2024/02/06 04:29:18;;;;;;;13.40;2.70;;;10.10;99.90;;;;;;5109862;27;20062;-65
2024/02/06 04:31:44;;;;;;;19.60;5.20;;;10.10;99.90;;;;;;5095802;28;20036;-64
2024/02/06 04:34:09;;;;;;;18.58;3.20;;;10.20;99.90;;;;;;5080793;28;20049;-65
2024/02/06 04:36:35;;;;;;;17.55;3.30;;;10.20;99.90;;;;;;5095608;28;20035;-65
2024/02/06 04:39:01;;;;;;;17.85;3.55;;;10.20;99.90;;;;;;5097155;28;20119;-65
2024/02/06 04:41:27;;;;;;;14.77;3.03;;;10.10;99.90;;;;;;5080316;28;20103;-65
2024/02/06 04:43:52;;;;;;;25.90;4.18;;;10.20;99.90;;;;;;5084667;28;20054;-65
2024/02/06 04:46:18;;;;;;;15.73;3.15;;;10.10;99.90;;;;;;5090890;28;20036;-65
2024/02/06 04:48:44;;;;;;;12.48;3.30;;;10.20;99.90;;;;;;5089784;28;20046;-65
2024/02/06 04:51:10;;;;;;;15.68;3.90;;;10.20;99.90;;;;;;5078851;28;20044;-65
2024/02/06 04:53:36;;;;;;;16.67;3.40;;;10.20;99.90;;;;;;5077961;28;20050;-65
2024/02/06 04:56:03;;;;;;;19.13;4.22;;;10.20;99.90;;;;;;5097479;28;20035;-65
2024/02/06 04:58:29;;;;;;;10.82;3.40;;;10.10;99.90;;;;;;5096965;28;20513;-65
2024/02/06 05:00:55;;;;;;;14.73;2.70;;;10.20;99.90;;;;;;5093028;28;20024;-65
2024/02/06 05:03:20;;;;;;;22.85;4.18;;;10.20;99.90;;;;;;5095310;28;20073;-65
2024/02/06 05:05:46;;;;;;;18.90;3.30;;;10.20;99.90;;;;;;5095026;28;20092;-65
2024/02/06 05:08:11;;;;;;;20.15;3.35;;;10.20;99.90;;;;;;5078254;28;20058;-65
2024/02/06 05:10:37;;;;;;;18.15;2.70;;;10.20;99.90;;;;;;5094127;28;20032;-65
2024/02/06 05:13:03;;;;;;;11.38;3.55;;;10.20;99.90;;;;;;5098667;28;20035;-65
2024/02/06 05:15:28;;;;;;;19.17;4.93;;;10.30;99.90;;;;;;5095786;28;20032;-64
2024/02/06 05:17:54;;;;;;;13.15;2.83;;;10.30;99.90;;;;;;5094389;28;20093;-65
2024/02/06 05:20:20;;;;;;;10.85;2.92;;;10.30;99.90;;;;;;5058300;28;20994;-65
2024/02/06 05:22:45;;;;;;;20.45;2.80;;;10.30;99.90;;;;;;5097754;28;20040;-65
2024/02/06 05:25:11;;;;;;;12.00;3.38;;;10.30;99.90;;;;;;5078896;28;20051;-65
2024/02/06 05:27:37;;;;;;;14.65;2.80;;;10.30;99.90;;;;;;5075445;28;20039;-65
2024/02/06 05:30:05;;;;;;;18.00;3.45;;;10.30;99.90;;;;;;5093100;28;20517;-64
2024/02/06 05:32:35;;;;;;;15.35;3.33;;;10.30;99.90;;;;;;5104610;27;20067;-65
2024/02/06 05:35:02;;;;;;;10.50;2.53;;;10.30;99.90;;;;;;5091585;28;20544;-65
2024/02/06 05:37:28;;;;;;;20.70;4.13;;;10.30;99.90;;;;;;5093404;28;20032;-65
2024/02/06 05:39:53;;;;;;;12.90;2.97;;;10.20;99.90;;;;;;5091542;28;20086;-65
2024/02/06 05:42:20;;;;;;;18.83;4.10;;;10.30;99.90;;;;;;5093144;28;20047;-65
2024/02/06 05:44:45;;;;;;;15.80;3.13;;;10.30;99.90;;;;;;5075717;28;20040;-65
2024/02/06 05:47:11;;;;;;;11.95;3.15;;;10.30;99.90;;;;;;5093139;28;20040;-65
2024/02/06 05:49:37;;;;;;;17.20;3.22;;;10.30;99.90;;;;;;5093647;28;20040;-65
2024/02/06 05:52:03;;;;;;;16.73;2.97;;;10.30;99.90;;;;;;5076985;28;20051;-64
2024/02/06 05:54:28;;;;;;;18.02;4.35;;;10.30;99.90;;;;;;5074506;28;20044;-65
2024/02/06 05:56:54;;;;;;;17.75;4.15;;;10.30;99.90;;;;;;5093519;28;20032;-65
2024/02/06 05:59:21;;;;;;;13.40;2.50;;;10.30;99.90;;;;;;5092880;28;20073;-65
2024/02/06 06:01:47;;;;;;;13.88;3.22;;;10.30;99.90;;;;;;5092780;28;20032;-65
2024/02/06 06:04:12;;;;;;;18.20;3.92;;;10.30;99.90;;;;;;5073803;28;20179;-65
2024/02/06 06:06:38;;;;;;;17.23;2.67;;;10.30;99.90;;;;;;5093189;28;20059;-65
2024/02/06 06:09:05;;;;;;;15.55;2.45;;;10.30;99.90;;;;;;5075044;28;20089;-65
2024/02/06 06:11:31;;;;;;;17.25;3.72;;;10.30;99.90;;;;;;5095632;28;20071;-65
2024/02/06 06:13:56;;;;;;;17.58;2.90;;;10.30;99.90;;;;;;5092713;28;20094;-65
2024/02/06 06:16:22;;;;;;;15.95;3.65;;;10.40;99.90;;;;;;5092832;28;20053;-65
2024/02/06 06:18:48;;;;;;;15.15;3.17;;;10.30;99.90;;;;;;5093482;28;20028;-65
2024/02/06 06:21:13;;;;;;;18.52;5.05;;;10.40;99.90;;;;;;5092587;28;20044;-65
2024/02/06 06:23:39;;;;;;;15.77;3.70;;;10.30;99.90;;;;;;5089068;28;20048;-65
2024/02/06 06:26:06;;;;;;;13.00;3.58;;;10.40;99.90;;;;;;5088922;28;20040;-65
2024/02/06 06:28:32;;;;;;;12.85;2.55;;;10.40;99.90;;;;;;5092628;28;20040;-65
2024/02/06 06:30:58;;;;;;;13.77;2.65;;;10.30;99.90;;;;;;5090194;28;20189;-65
2024/02/06 06:33:23;;;;;;;13.82;2.85;;;10.40;99.90;;;;;;5076968;28;20044;-65
2024/02/06 06:35:49;;;;;;;13.73;3.50;;;10.60;99.90;;;;;;5075888;28;20529;-65
2024/02/06 06:38:15;;;;;;;25.02;3.85;;;10.50;99.90;;;;;;5077402;28;20608;-65
2024/02/06 06:40:40;;;;;;;19.58;3.47;;;10.40;99.90;;;;;;5075643;28;20040;-65
2024/02/06 06:43:06;;;;;;;19.95;3.67;;;10.50;99.90;;;;;;5074620;28;20048;-65
2024/02/06 06:45:33;;;;;;;18.08;3.10;;;10.40;99.90;;;;;;5089118;28;20521;-65
2024/02/06 06:47:59;;;;;;;13.77;3.25;;;10.40;99.90;;;;;;5105460;28;20089;-65
2024/02/06 06:50:25;;;;;;;21.42;3.50;;;10.40;99.90;;;;;;5090291;28;20035;-65
2024/02/06 06:52:50;;;;;;;21.48;3.30;;;10.40;99.90;;;;;;5070838;28;20044;-65
2024/02/06 06:55:16;;;;;;;14.80;3.33;;;10.40;99.90;;;;;;5093142;28;20124;-65
2024/02/06 06:57:42;;;;;;;17.92;3.60;;;10.40;99.90;;;;;;5093784;28;20040;-65
2024/02/06 07:00:11;;;;;;;16.85;2.97;;;10.50;99.90;;;;;;5076711;28;20082;-65
2024/02/06 07:02:37;;;;;;;18.40;3.50;;;10.40;99.90;;;;;;5091701;28;20571;-65
2024/02/06 07:05:04;;;;;;;18.67;4.63;;;10.40;99.90;;;;;;5091189;28;20036;-65
2024/02/06 07:07:32;;;;;;;15.05;2.90;;;10.40;99.90;;;;;;5087048;28;20036;-65
2024/02/06 07:09:58;;;;;;;16.45;3.78;;;10.40;99.90;;;;;;5075642;28;20164;-65
2024/02/06 07:12:23;;;;;;;15.05;3.75;;;10.40;99.90;;;;;;5104851;28;20135;-64
2024/02/06 07:14:49;;;;;;;18.05;3.42;;;10.40;99.90;;;;;;5093475;28;20032;-64
2024/02/06 07:17:15;;;;;;;23.95;4.15;;;10.40;99.90;;;;;;5072839;28;20953;-65
2024/02/06 07:19:41;;;;;;;16.30;3.75;;;10.40;99.90;;;;;;5094785;28;20043;-65
2024/02/06 07:22:07;;;;;;;15.85;4.15;;;10.40;99.90;;;;;;5094948;28;20031;-65
2024/02/06 07:24:32;;;;;;;16.77;3.80;;;10.40;99.90;;;;;;5088635;28;20434;-65
2024/02/06 07:26:59;;;;;;;15.98;3.90;;;10.40;99.90;;;;;;5080491;28;20055;-65
2024/02/06 07:29:25;;;;;;;21.25;3.50;;;10.40;99.90;;;;;;5078616;28;20056;-65
2024/02/06 07:31:50;;;;;;;15.65;3.45;;;10.40;99.90;;;;;;5091902;28;20402;-65
2024/02/06 07:34:18;;;;;;;15.02;2.90;;;10.40;99.90;;;;;;5071325;28;20138;-65
2024/02/06 07:36:44;;;;;;;16.67;3.70;;;10.50;99.90;;;;;;5090367;28;20047;-65
2024/02/06 07:39:10;;;;;;;18.00;4.47;;;10.40;99.90;;;;;;5071500;28;20031;-65
2024/02/06 07:41:36;;;;;;;14.15;3.70;;;10.50;99.90;;;;;;5071216;28;20052;-64
2024/02/06 07:44:03;;;;;;;17.35;3.58;;;10.40;99.90;;;;;;5087267;28;20510;-65
2024/02/06 07:46:30;;;;;;;17.48;3.10;;;10.50;99.90;;;;;;5087043;28;20084;-65
2024/02/06 07:48:56;;;;;;;17.10;4.15;;;10.50;99.90;;;;;;5084839;28;20040;-65
2024/02/06 07:51:22;;;;;;;19.65;3.35;;;10.60;99.90;;;;;;5096608;28;20442;-65
2024/02/06 07:53:49;;;;;;;18.90;3.70;;;10.60;99.90;;;;;;5113301;27;20410;-64
2024/02/06 07:56:16;;;;;;;13.98;3.50;;;10.60;99.90;;;;;;5076795;28;20044;-65
2024/02/06 07:58:41;;;;;;;16.05;3.97;;;10.60;99.90;;;;;;5077569;28;20089;-65
2024/02/06 08:01:07;;;;;;;15.70;3.65;;;10.70;99.90;;;;;;5094755;28;20040;-65
2024/02/06 08:03:33;;;;;;;13.68;3.00;;;10.70;99.90;;;;;;5079588;28;20061;-65
2024/02/06 08:05:58;;;;;;;16.63;3.60;;;10.70;99.90;;;;;;5079377;28;20046;-65
2024/02/06 08:08:24;;;;;;;16.42;3.10;;;10.70;99.90;;;;;;5099509;28;20505;-65
2024/02/06 08:10:50;;;;;;;16.77;2.83;;;10.70;99.90;;;;;;5078994;28;20409;-65
2024/02/06 08:13:16;;;;;;;15.05;3.45;;;10.70;99.90;;;;;;5097102;28;21044;-65
2024/02/06 08:15:42;;;;;;;19.30;3.05;;;10.70;99.90;;;;;;5100471;28;20032;-64
2024/02/06 08:18:08;;;;;;;19.70;3.67;;;10.70;99.90;;;;;;5092956;28;20034;-65
2024/02/06 08:20:34;;;;;;;15.55;3.10;;;10.80;99.90;;;;;;5055346;28;20620;-65
2024/02/06 08:22:59;;;;;;;16.45;4.22;;;10.80;99.90;;;;;;5097593;28;20046;-64
2024/02/06 08:25:25;;;;;;;13.52;2.97;;;10.70;99.90;;;;;;5091431;28;20043;-64
2024/02/06 08:27:51;;;;;;;15.82;3.00;;;10.70;99.90;;;;;;5099727;28;20044;-65
2024/02/06 08:30:17;;;;;;;15.48;2.95;;;10.70;99.90;;;;;;5095692;28;20036;-65
2024/02/06 08:32:44;;;;;;;17.17;3.80;;;10.70;99.90;;;;;;5097757;28;20478;-65
2024/02/06 08:35:09;;;;;;;17.17;3.38;;;10.70;99.90;;;;;;5098273;28;20032;-65
2024/02/06 08:37:35;;;;;;;20.13;4.70;;;10.70;99.90;;;;;;5101461;28;20036;-65
2024/02/06 08:40:05;;;;;;;21.58;4.60;;;10.70;99.90;;;;;;5098527;28;20032;-65
2024/02/06 08:42:31;;;;;;;20.52;4.18;;;10.70;99.90;;;;;;5100617;28;20046;-64
2024/02/06 08:44:57;;;;;;;19.58;3.92;;;10.70;99.90;;;;;;5099688;28;20028;-65
2024/02/06 08:47:23;;;;;;;18.25;4.00;;;10.70;99.90;;;;;;5078278;28;20036;-65
2024/02/06 08:49:50;;;;;;;16.15;3.38;;;10.70;99.90;;;;;;5091700;28;20047;-65
2024/02/06 08:52:15;;;;;;;18.88;4.93;;;10.80;99.90;;;;;;5065593;28;20048;-65
2024/02/06 08:54:41;;;;;;;20.25;4.85;;;10.80;99.90;;;;;;5096618;28;20046;-64
2024/02/06 08:57:07;;;;;;;21.92;4.68;;;10.80;99.90;;;;;;5085961;28;20469;-65
2024/02/06 08:59:32;;;;;;;18.45;4.05;;;10.80;99.90;;;;;;5078850;28;20032;-65
2024/02/06 09:02:01;;;;;;;19.15;4.22;;;10.80;99.90;;;;;;5097245;28;20032;-64
2024/02/06 09:04:26;;;;;;;19.58;3.63;;;10.90;99.90;;;;;;5095467;28;20117;-64
2024/02/06 09:06:52;;;;;;;22.65;3.65;;;10.80;99.90;;;;;;5094486;28;20448;-65
2024/02/06 09:09:19;;;;;;;16.80;3.35;;;10.80;99.90;;;;;;5093162;28;20039;-65
2024/02/06 09:11:44;;;;;;;18.83;4.15;;;10.90;99.90;;;;;;5099603;28;20032;-65
2024/02/06 09:14:10;;;;;;;20.90;3.75;;;10.90;99.90;;;;;;5096131;28;20051;-65
2024/02/06 09:16:36;;;;;;;17.83;3.00;;;10.90;99.90;;;;;;5097334;28;20040;-65
2024/02/06 09:19:02;;;;;;;20.50;3.80;;;10.90;99.90;;;;;;5097515;28;20063;-65
2024/02/06 09:21:27;;;;;;;19.38;4.88;;;10.90;99.90;;;;;;5088762;28;20074;-64
2024/02/06 09:23:53;;;;;;;13.93;3.38;;;10.90;99.90;;;;;;5068234;28;20124;-65
2024/02/06 09:26:19;;;;;;;20.75;3.95;;;10.90;99.90;;;;;;5067940;28;20073;-65
2024/02/06 09:28:44;;;;;;;21.00;4.25;;;10.90;99.90;;;;;;5085009;28;20032;-64
2024/02/06 09:31:11;;;;;;;23.67;4.95;;;10.90;99.90;;;;;;5092922;28;20035;-64
2024/02/06 09:33:37;;;;;;;23.02;3.97;;;10.90;99.90;;;;;;5091437;28;20128;-65
2024/02/06 09:36:05;;;;;;;25.15;5.63;;;10.90;99.90;;;;;;5095909;28;20143;-65
2024/02/06 09:38:31;;;;;;;14.70;3.75;;;10.80;99.90;;;;;;5076136;28;20039;-65
2024/02/06 09:40:57;;;;;;;22.60;4.40;;;10.90;99.90;;;;;;5097390;28;20059;-65
2024/02/06 09:43:23;;;;;;;19.58;3.40;;;10.90;99.90;;;;;;5064142;28;20981;-65
2024/02/06 09:45:50;;;;;;;26.17;4.20;;;10.90;99.90;;;;;;5092444;28;20066;-65
2024/02/06 09:48:15;;;;;;;19.05;4.38;;;10.90;99.90;;;;;;5080569;28;20049;-65
2024/02/06 09:50:42;;;;;;;22.40;4.32;;;10.90;99.90;;;;;;5065579;28;20035;-65
2024/02/06 09:53:12;;;;;;;23.58;4.80;;;10.90;99.90;;;;;;5084518;28;20036;-65
2024/02/06 09:55:40;;;;;;;20.00;4.80;;;10.90;99.90;;;;;;5065985;28;20047;-64
2024/02/06 09:58:08;;;;;;;25.95;4.82;;;11.10;99.90;;;;;;5099597;27;20041;-65
2024/02/06 10:00:35;;;;;;;20.70;5.57;;;10.90;99.90;;;;;;5071841;28;20047;-64
2024/02/06 10:03:07;;;;;;;26.35;5.47;;;10.90;99.90;;;;;;5083462;28;20046;-65
2024/02/06 10:05:40;;;;;;;19.10;4.43;;;10.90;99.90;;;;;;5067460;28;20070;-65
2024/02/06 10:08:08;;;;;;;19.50;4.10;;;11.00;99.90;;;;;;5099467;27;20048;-65
2024/02/06 10:10:35;;;;;;;22.60;3.97;;;11.00;99.90;;;;;;5084665;28;20093;-65
2024/02/06 10:13:04;;;;;;;21.25;4.97;;;11.20;99.90;;;;;;5067399;28;20043;-65
2024/02/06 10:15:30;;;;;;;21.98;3.65;;;11.00;99.90;;;;;;5084814;28;20032;-65
2024/02/06 10:17:56;;;;;;;17.90;3.33;;;11.10;99.90;;;;;;5086191;28;20439;-65
2024/02/06 10:20:22;;;;;;;13.38;3.22;;;11.10;99.90;;;;;;5084037;28;20039;-65
2024/02/06 10:22:50;;;;;;;12.25;3.10;;;11.10;99.90;;;;;;5089315;28;20036;-65
2024/02/06 10:25:17;;;;;;;19.42;3.85;;;11.40;99.90;;;;;;5099197;28;20499;-65
2024/02/06 10:27:43;;;;;;;19.95;2.88;;;11.40;99.90;;;;;;5064821;28;20513;-65
2024/02/06 10:30:12;;;;;;;14.05;3.13;;;11.40;99.90;;;;;;5082425;28;20036;-64
2024/02/06 10:32:38;;;;;;;19.35;4.43;;;11.40;99.90;;;;;;5075600;28;20039;-65
2024/02/06 10:35:08;;;;;;;20.08;4.85;;;11.50;99.90;;;;;;5068668;28;20036;-65
2024/02/06 10:37:38;;;;;;;18.63;3.65;;;11.40;99.90;;;;;;5086135;28;20039;-65
2024/02/06 10:40:11;;;;;;;20.30;4.63;;;11.40;99.90;;;;;;5084123;28;20301;-64
2024/02/06 10:42:39;;;;;;;16.98;2.92;;;11.40;99.90;;;;;;5086724;28;20421;-65
2024/02/06 10:45:05;;;;;;;19.35;4.15;;;11.50;99.90;;;;;;5067463;28;20044;-65
2024/02/06 10:47:32;;;;;;;17.92;3.42;;;11.40;99.90;;;;;;5082926;28;20131;-65
2024/02/06 10:50:05;;;;;;;19.90;3.38;;;11.40;99.90;;;;;;5067638;28;20040;-65
2024/02/06 10:52:31;;;;;;;15.40;3.42;;;11.40;99.90;;;;;;5090784;28;20036;-65
2024/02/06 10:54:58;;;;;;;16.30;3.15;;;11.40;99.90;;;;;;5073032;28;20042;-65
2024/02/06 10:57:34;;;;;;;17.90;4.03;;;11.50;99.90;;;;;;5085827;28;20024;-65
2024/02/06 11:00:07;;;;;;;19.77;3.17;;;11.50;99.90;;;;;;5099912;28;20059;-65
2024/02/06 11:02:34;;;;;;;17.73;3.47;;;11.50;99.90;;;;;;5084251;28;20642;-65
2024/02/06 11:05:11;;;;;;;13.15;2.42;;;11.50;99.90;;;;;;5067812;28;20082;-65
2024/02/06 11:07:54;;;;;;;12.98;2.97;;;11.60;99.90;;;;;;5088192;28;20111;-65
2024/02/06 11:10:26;;;;;;;13.40;2.42;;;11.60;99.90;;;;;;5071271;28;20039;-65
2024/02/06 11:13:01;;;;;;;18.05;3.55;;;11.60;99.90;;;;;;5073646;28;20048;-65
2024/02/06 11:15:27;;;;;;;;;;;11.60;99.90;;;;;;5100327;28;20031;-64
2024/02/06 11:17:54;;;;;;;12.73;2.50;;;11.70;99.90;;;;;;5078268;28;21858;-64
2024/02/06 11:20:25;;;;;;;17.63;3.45;;;11.70;99.90;;;;;;5103474;28;20024;-65
2024/02/06 11:22:53;;;;;;;12.30;2.67;;;11.70;99.90;;;;;;5100670;28;20080;-65
2024/02/06 11:25:20;;;;;;;14.02;2.83;;;11.80;99.90;;;;;;5099503;28;20451;-65
2024/02/06 11:27:47;;;;;;;15.10;3.75;;;11.70;99.90;;;;;;5076065;28;20036;-65
2024/02/06 11:30:16;;;;;;;13.65;2.33;;;11.60;99.90;;;;;;5060068;28;20036;-65
2024/02/06 11:32:42;;;;;;;11.30;3.70;;;11.60;99.90;;;;;;5090031;28;20380;-65
2024/02/06 11:35:08;;;;;;;14.52;2.78;;;11.60;99.90;;;;;;5096861;28;20042;-65
2024/02/06 11:37:35;;;;;;;17.45;3.20;;;11.60;99.90;;;;;;5089805;28;20118;-65
2024/02/06 11:40:11;;;;;;;18.83;3.90;;;11.60;99.90;;;;;;5101318;28;20107;-65
2024/02/06 11:42:38;;;;;;;18.00;3.22;;;11.70;99.90;;;;;;5087006;28;20048;-65
2024/02/06 11:45:09;;;;;;;16.45;2.72;;;11.60;99.90;;;;;;5095716;28;20885;-65
2024/02/06 11:47:36;;;;;;;13.00;2.58;;;11.60;99.90;;;;;;5064373;28;20123;-65
2024/02/06 11:50:10;;;;;;;17.02;3.88;;;11.60;99.90;;;;;;5092375;28;20034;-65
2024/02/06 11:52:35;;;;;;;14.10;2.33;;;11.60;99.90;;;;;;5081271;28;20047;-65
2024/02/06 11:55:03;;;;;;;12.93;3.42;;;11.60;99.90;;;;;;5096403;28;20036;-65
2024/02/06 11:57:30;;;;;;;17.08;3.28;;;11.60;99.90;;;;;;5088344;28;20047;-65
2024/02/06 11:59:56;;;;;;;16.77;3.63;;;11.70;99.90;;;;;;5099358;28;20039;-65
2024/02/06 12:02:21;;;;;;;10.63;3.20;;;11.80;99.90;;;;;;5067904;28;20047;-65
2024/02/06 12:04:47;;;;;;;14.68;2.92;;;11.70;99.90;;;;;;5079076;28;20118;-65
2024/02/06 12:07:14;;;;;;;14.05;3.33;;;11.80;99.90;;;;;;5095779;28;20070;-65
2024/02/06 12:09:40;;;;;;;11.35;2.17;;;11.90;99.90;;;;;;5096519;28;20039;-65
2024/02/06 12:12:08;;;;;;;10.32;2.83;;;11.90;99.90;;;;;;5093164;28;20032;-65
2024/02/06 12:14:33;;;;;;;15.80;3.42;;;11.80;99.90;;;;;;5081985;28;20044;-65
2024/02/06 12:17:00;;;;;;;20.92;4.40;;;11.90;99.90;;;;;;5099021;28;20040;-65
2024/02/06 12:19:26;;;;;;;13.73;2.65;;;11.90;99.90;;;;;;5101012;28;20036;-65
2024/02/06 12:22:18;;;;;;;13.45;3.25;;;11.90;99.90;;;;;;5084026;28;20151;-65
2024/02/06 12:24:44;;;;;;;14.55;3.08;;;12.00;99.90;;;;;;5094296;28;20047;-65
2024/02/06 12:27:10;;;;;;;21.17;3.72;;;12.00;99.90;;;;;;5078779;28;20090;-65
2024/02/06 12:29:41;;;;;;;18.52;3.15;;;12.00;99.90;;;;;;5087907;28;20498;-65
2024/02/06 12:32:07;;;;;;;17.55;3.95;;;11.90;99.90;;;;;;5094669;28;20066;-65
2024/02/06 12:34:34;;;;;;;10.45;2.55;;;12.00;99.90;;;;;;5079823;28;20040;-65
2024/02/06 12:37:02;;;;;;;12.43;2.60;;;11.90;99.90;;;;;;5097376;28;20075;-65